createdAt,value
2018-09-10T00:01:33.142Z,59.14
2018-09-10T00:04:01.540Z,58.98
2018-09-10T00:06:29.903Z,58.64
2018-09-10T00:08:58.699Z,61.11
2018-09-10T00:11:27.055Z,59.87
2018-09-10T00:13:55.370Z,59.11
2018-09-10T00:16:24.738Z,59.01
2018-09-10T00:18:53.120Z,58.50
2018-09-10T00:21:21.595Z,58.82
2018-09-10T00:23:49.912Z,59.07
2018-09-10T00:26:18.251Z,59.50
2018-09-10T00:28:46.588Z,61.20
2018-09-10T00:31:14.942Z,59.91
2018-09-10T00:33:43.244Z,59.80
2018-09-10T00:36:11.594Z,59.92
2018-09-10T00:38:39.942Z,60.50
2018-09-10T00:41:08.312Z,59.52
2018-09-10T00:43:36.661Z,60.38
2018-09-10T00:46:05.009Z,60.39
2018-09-10T00:48:33.356Z,61.34
2018-09-10T00:51:01.738Z,60.65
2018-09-10T00:53:30.122Z,61.65
2018-09-10T00:55:58.467Z,61.02
2018-09-10T00:58:26.814Z,61.37
2018-09-10T01:00:55.158Z,63.62
2018-09-10T01:03:23.499Z,62.96
2018-09-10T01:05:51.836Z,62.89
2018-09-10T01:08:20.176Z,61.19
2018-09-10T01:10:48.537Z,61.43
2018-09-10T01:13:16.870Z,61.04
2018-09-10T01:15:45.235Z,62.14
2018-09-10T01:18:13.557Z,61.04
2018-09-10T01:20:42.109Z,61.56
2018-09-10T01:23:10.452Z,61.21
2018-09-10T01:25:38.779Z,61.65
2018-09-10T01:28:08.733Z,61.51
2018-09-10T01:30:37.093Z,61.67
2018-09-10T01:33:09.241Z,61.76
2018-09-10T01:35:37.634Z,62.51
2018-09-10T01:38:05.989Z,62.56
2018-09-10T01:40:34.343Z,62.14
2018-09-10T01:43:02.688Z,62.12
2018-09-10T01:45:31.025Z,62.52
2018-09-10T01:47:59.400Z,62.65
2018-09-10T01:50:27.929Z,61.34
2018-09-10T01:52:56.280Z,61.84
2018-09-10T01:55:24.628Z,61.98
2018-09-10T01:57:53.476Z,62.55
2018-09-10T02:00:21.853Z,61.58
2018-09-10T02:02:50.204Z,64.15
2018-09-10T02:05:18.568Z,62.08
2018-09-10T02:07:46.905Z,61.12
2018-09-10T02:10:15.252Z,61.59
2018-09-10T02:12:43.615Z,61.64
2018-09-10T02:15:11.957Z,62.36
2018-09-10T02:17:40.259Z,62.40
2018-09-10T02:20:08.622Z,62.48
2018-09-10T02:22:36.994Z,61.57
2018-09-10T02:25:05.314Z,61.93
2018-09-10T02:27:33.762Z,60.91
2018-09-10T02:31:26.462Z,61.08
2018-09-10T02:33:54.797Z,60.92
2018-09-10T02:36:23.130Z,60.72
2018-09-10T02:38:51.476Z,61.41
2018-09-10T02:41:19.836Z,60.83
2018-09-10T02:43:48.176Z,61.67
2018-09-10T02:46:16.499Z,61.44
2018-09-10T02:48:44.820Z,62.67
2018-09-10T02:51:13.173Z,62.25
2018-09-10T02:53:41.516Z,61.59
2018-09-10T02:56:10.047Z,61.67
2018-09-10T02:58:38.591Z,61.01
2018-09-10T03:01:06.940Z,60.69
2018-09-10T03:03:35.476Z,61.69
2018-09-10T03:06:03.833Z,61.47
2018-09-10T03:08:32.162Z,61.62
2018-09-10T03:11:00.505Z,61.60
2018-09-10T03:13:28.855Z,62.08
2018-09-10T03:15:57.168Z,61.04
2018-09-10T03:18:25.494Z,61.64
2018-09-10T03:20:53.836Z,61.74
2018-09-10T03:23:22.170Z,61.94
2018-09-10T03:25:50.593Z,61.10
2018-09-10T03:28:19.570Z,61.06
2018-09-10T03:30:47.889Z,61.51
2018-09-10T03:33:16.238Z,62.50
2018-09-10T03:35:44.604Z,61.89
2018-09-10T03:38:12.972Z,61.76
2018-09-10T03:40:41.339Z,63.06
2018-09-10T03:43:09.685Z,62.62
2018-09-10T03:45:38.034Z,62.14
2018-09-10T03:48:06.411Z,61.36
2018-09-10T03:50:34.745Z,61.36
2018-09-10T03:53:03.124Z,62.37
2018-09-10T03:55:31.483Z,61.82
2018-09-10T03:57:59.827Z,61.71
2018-09-10T04:00:28.236Z,62.37
2018-09-10T04:02:56.588Z,62.36
2018-09-10T04:05:24.927Z,62.28
2018-09-10T04:07:53.300Z,63.32
2018-09-10T04:10:21.647Z,62.15
2018-09-10T04:12:49.995Z,63.10
2018-09-10T04:15:18.334Z,62.66
2018-09-10T04:17:46.679Z,62.14
2018-09-10T04:20:15.018Z,61.58
2018-09-10T04:22:44.185Z,61.80
2018-09-10T04:25:12.540Z,61.98
2018-09-10T04:27:40.884Z,61.72
2018-09-10T04:30:13.318Z,62.25
2018-09-10T04:32:42.646Z,63.94
2018-09-10T04:35:11.643Z,62.69
2018-09-10T04:37:40.605Z,63.93
2018-09-10T04:40:08.992Z,62.48
2018-09-10T04:42:37.372Z,63.58
2018-09-10T04:45:06.017Z,62.94
2018-09-10T04:47:34.400Z,62.35
2018-09-10T04:50:03.154Z,63.12
2018-09-10T04:52:31.572Z,63.57
2018-09-10T04:54:59.982Z,62.27
2018-09-10T04:57:28.346Z,62.96
2018-09-10T04:59:56.709Z,62.72
2018-09-10T05:02:25.052Z,62.69
2018-09-10T05:04:53.412Z,62.31
2018-09-10T05:07:21.770Z,62.88
2018-09-10T05:09:50.223Z,62.46
2018-09-10T05:12:18.456Z,62.04
2018-09-10T05:14:46.824Z,62.12
2018-09-10T05:17:15.200Z,62.90
2018-09-10T05:19:43.535Z,61.88
2018-09-10T05:22:11.900Z,61.75
2018-09-10T05:24:40.229Z,62.14
2018-09-10T05:27:08.601Z,61.92
2018-09-10T05:29:36.932Z,62.32
2018-09-10T05:32:05.322Z,61.85
2018-09-10T05:34:33.707Z,62.02
2018-09-10T05:37:02.087Z,61.53
2018-09-10T05:39:30.439Z,62.83
2018-09-10T05:41:58.813Z,62.52
2018-09-10T05:44:27.299Z,61.77
2018-09-10T05:46:55.692Z,61.37
2018-09-10T05:49:24.050Z,61.18
2018-09-10T05:51:52.495Z,62.31
2018-09-10T05:54:20.836Z,62.42
2018-09-10T05:56:49.281Z,63.04
2018-09-10T05:59:18.130Z,62.51
2018-09-10T06:01:46.526Z,62.15
2018-09-10T06:04:15.024Z,61.91
2018-09-10T06:06:43.550Z,62.13
2018-09-10T06:09:12.099Z,61.74
2018-09-10T06:11:40.487Z,61.45
2018-09-10T06:14:08.990Z,61.41
2018-09-10T06:16:37.490Z,61.34
2018-09-10T06:19:05.857Z,60.83
2018-09-10T06:21:34.457Z,60.55
2018-09-10T06:24:02.858Z,60.14
2018-09-10T06:26:31.238Z,59.85
2018-09-10T06:28:59.577Z,60.39
2018-09-10T06:31:27.902Z,58.72
2018-09-10T06:33:56.736Z,58.40
2018-09-10T06:36:25.711Z,59.28
2018-09-10T06:38:54.528Z,59.07
2018-09-10T06:41:23.084Z,59.02
2018-09-10T06:43:51.665Z,58.01
2018-09-10T06:46:20.064Z,58.83
2018-09-10T06:48:49.196Z,57.13
2018-09-10T06:51:17.584Z,56.10
2018-09-10T06:53:45.950Z,55.12
2018-09-10T06:56:14.292Z,55.74
2018-09-10T06:58:42.672Z,54.97
2018-09-10T07:01:11.053Z,55.85
2018-09-10T07:03:39.486Z,55.52
2018-09-10T07:06:07.901Z,56.19
2018-09-10T07:08:36.281Z,55.48
2018-09-10T07:11:04.742Z,55.05
2018-09-10T07:13:33.144Z,54.41
2018-09-10T07:16:01.533Z,53.59
2018-09-10T07:18:30.019Z,52.35
2018-09-10T07:20:58.375Z,50.91
2018-09-10T07:23:26.722Z,51.32
2018-09-10T07:25:55.087Z,50.46
2018-09-10T07:28:23.459Z,48.45
2018-09-10T07:30:52.356Z,49.53
2018-09-10T07:33:20.696Z,48.35
2018-09-10T07:35:49.063Z,49.01
2018-09-10T07:38:17.413Z,48.28
2018-09-10T07:40:45.835Z,48.45
2018-09-10T07:43:14.182Z,47.18
2018-09-10T07:45:42.620Z,46.04
2018-09-10T07:48:10.995Z,46.46
2018-09-10T07:50:39.379Z,46.84
2018-09-10T07:53:07.729Z,46.82
2018-09-10T07:55:36.119Z,45.35
2018-09-10T07:58:04.549Z,44.91
2018-09-10T08:00:33.755Z,44.10
2018-09-10T08:03:02.210Z,43.39
2018-09-10T08:05:30.571Z,43.38
2018-09-10T08:07:58.952Z,42.30
2018-09-10T08:10:27.318Z,42.15
2018-09-10T08:12:55.707Z,41.49
2018-09-10T08:15:24.087Z,40.28
2018-09-10T08:17:52.454Z,42.49
2018-09-10T08:20:20.801Z,41.56
2018-09-10T08:22:49.208Z,42.81
2018-09-10T08:25:17.660Z,40.90
2018-09-10T08:27:45.985Z,39.26
2018-09-10T08:30:14.431Z,38.32
2018-09-10T08:32:42.832Z,37.52
2018-09-10T08:35:11.190Z,37.92
2018-09-10T08:37:39.563Z,39.43
2018-09-10T08:40:07.999Z,36.22
2018-09-10T08:42:36.370Z,36.15
2018-09-10T08:45:05.181Z,38.70
2018-09-10T08:47:33.510Z,36.81
2018-09-10T08:50:01.890Z,35.26
2018-09-10T08:52:30.238Z,35.37
2018-09-10T08:54:59.016Z,34.93
2018-09-10T08:57:27.000Z,35.15
2018-09-10T08:59:55.355Z,36.34
2018-09-10T09:02:23.700Z,34.88
2018-09-10T09:04:52.067Z,36.60
2018-09-10T09:07:20.416Z,35.31
2018-09-10T09:09:48.768Z,36.25
2018-09-10T09:12:17.085Z,36.85
2018-09-10T09:14:45.449Z,36.75
2018-09-10T09:17:13.803Z,36.12
2018-09-10T09:19:42.136Z,36.08
2018-09-10T09:22:10.564Z,36.59
2018-09-10T09:24:38.946Z,37.14
2018-09-10T09:27:07.289Z,37.62
2018-09-10T09:29:35.864Z,38.14
2018-09-10T09:32:04.271Z,38.59
2018-09-10T09:34:37.820Z,38.45
2018-09-10T09:37:11.483Z,38.18
2018-09-10T09:39:45.214Z,38.21
2018-09-10T09:42:18.880Z,38.51
2018-09-10T09:44:52.560Z,38.38
2018-09-10T09:47:20.912Z,38.83
2018-09-10T09:49:49.331Z,38.82
2018-09-10T09:52:17.718Z,39.11
2018-09-10T09:54:46.087Z,38.71
2018-09-10T09:57:14.432Z,39.22
2018-09-10T09:59:42.782Z,38.86
2018-09-10T10:02:16.461Z,37.79
2018-09-10T10:04:44.807Z,38.29
2018-09-10T10:07:13.215Z,37.67
2018-09-10T10:09:41.584Z,37.48
2018-09-10T10:12:09.997Z,37.69
2018-09-10T10:14:38.336Z,36.30
2018-09-10T10:17:06.715Z,36.63
2018-09-10T10:19:35.084Z,37.44
2018-09-10T10:22:03.513Z,35.88
2018-09-10T10:24:31.891Z,33.55
2018-09-10T10:27:00.391Z,34.90
2018-09-10T10:29:28.735Z,34.04
2018-09-10T10:31:57.101Z,33.94
2018-09-10T10:34:25.451Z,35.02
2018-09-10T10:36:54.006Z,34.29
2018-09-10T10:39:22.426Z,33.92
2018-09-10T10:41:50.753Z,33.50
2018-09-10T10:44:19.112Z,33.83
2018-09-10T10:46:47.473Z,34.29
2018-09-10T10:49:15.830Z,34.87
2018-09-10T10:51:44.217Z,35.11
2018-09-10T10:54:12.593Z,35.61
2018-09-10T10:56:41.197Z,35.61
2018-09-10T10:59:09.547Z,35.34
2018-09-10T11:01:37.896Z,36.35
2018-09-10T11:04:06.258Z,36.35
2018-09-10T11:06:34.650Z,35.48
2018-09-10T11:09:03.021Z,35.92
2018-09-10T11:11:31.385Z,35.18
2018-09-10T11:13:59.743Z,35.68
2018-09-10T11:16:28.124Z,35.55
2018-09-10T11:18:56.477Z,35.97
2018-09-10T11:21:24.989Z,36.41
2018-09-10T11:23:53.349Z,36.63
2018-09-10T11:26:21.722Z,36.38
2018-09-10T11:28:50.056Z,36.98
2018-09-10T11:31:18.434Z,36.99
2018-09-10T11:33:47.044Z,36.54
2018-09-10T11:36:15.381Z,36.45
2018-09-10T11:38:43.718Z,36.33
2018-09-10T11:41:12.070Z,36.00
2018-09-10T11:43:40.476Z,36.26
2018-09-10T11:46:08.838Z,36.29
2018-09-10T11:48:37.204Z,36.08
2018-09-10T11:51:05.575Z,35.94
2018-09-10T11:53:34.058Z,36.71
2018-09-10T11:56:02.497Z,36.08
2018-09-10T11:58:31.354Z,35.91
2018-09-10T12:00:59.712Z,35.16
2018-09-10T12:03:28.065Z,35.00
2018-09-10T12:05:56.386Z,34.93
2018-09-10T12:08:24.988Z,34.95
2018-09-10T12:10:53.530Z,34.21
2018-09-10T12:13:21.988Z,33.92
2018-09-10T12:15:50.865Z,34.08
2018-09-10T12:18:19.254Z,34.72
2018-09-10T12:20:47.622Z,34.81
2018-09-10T12:23:15.997Z,35.11
2018-09-10T12:25:44.524Z,34.62
2018-09-10T12:28:12.903Z,34.16
2018-09-10T12:30:41.727Z,33.85
2018-09-10T12:33:10.235Z,33.96
2018-09-10T12:35:38.585Z,34.35
2018-09-10T12:38:06.949Z,33.62
2018-09-10T12:40:35.325Z,34.03
2018-09-10T12:43:03.684Z,33.71
2018-09-10T12:45:32.253Z,34.14
2018-09-10T12:48:00.769Z,33.85
2018-09-10T12:50:29.140Z,34.88
2018-09-10T12:52:57.526Z,34.35
2018-09-10T12:55:25.923Z,34.82
2018-09-10T12:57:54.309Z,34.79
2018-09-10T13:00:22.719Z,34.39
2018-09-10T13:02:51.091Z,34.47
2018-09-10T13:05:19.451Z,35.35
2018-09-10T13:07:47.983Z,34.62
2018-09-10T13:10:16.333Z,34.65
2018-09-10T13:12:44.992Z,35.20
2018-09-10T13:15:13.352Z,35.05
2018-09-10T13:17:41.875Z,35.09
2018-09-10T13:20:10.314Z,35.15
2018-09-10T13:22:38.702Z,36.01
2018-09-10T13:25:07.972Z,36.16
2018-09-10T13:27:36.371Z,36.20
2018-09-10T13:30:05.113Z,36.00
2018-09-10T13:32:33.454Z,36.06
2018-09-10T13:35:01.928Z,37.56
2018-09-10T13:37:30.401Z,35.70
2018-09-10T13:39:58.847Z,36.69
2018-09-10T13:42:27.656Z,36.75
2018-09-10T13:44:55.983Z,37.36
2018-09-10T13:47:24.921Z,37.47
2018-09-10T13:49:53.302Z,36.22
2018-09-10T13:52:21.618Z,36.90
2018-09-10T13:54:50.023Z,37.28
2018-09-10T13:57:18.396Z,37.40
2018-09-10T13:59:46.876Z,37.06
2018-09-10T14:02:15.164Z,37.56
2018-09-10T14:06:12.662Z,37.72
2018-09-10T14:08:41.043Z,38.81
2018-09-10T14:11:09.395Z,38.92
2018-09-10T14:13:37.787Z,38.27
2018-09-10T14:16:06.354Z,38.73
2018-09-10T14:18:34.733Z,38.96
2018-09-10T14:21:03.075Z,38.92
2018-09-10T14:23:31.488Z,38.81
2018-09-10T14:25:59.873Z,38.46
2018-09-10T14:28:28.325Z,38.18
2018-09-10T14:30:57.496Z,39.22
2018-09-10T14:33:25.895Z,39.10
2018-09-10T14:35:54.853Z,39.29
2018-09-10T14:38:23.285Z,39.15
2018-09-10T14:40:51.663Z,38.69
2018-09-10T14:43:19.993Z,38.80
2018-09-10T14:45:48.506Z,38.59
2018-09-10T14:48:16.884Z,39.32
2018-09-10T14:50:45.303Z,38.02
2018-09-10T14:53:13.714Z,39.64
2018-09-10T14:55:42.092Z,39.05
2018-09-10T14:58:10.439Z,39.03
2018-09-10T15:00:38.849Z,39.33
2018-09-10T15:03:07.196Z,40.02
2018-09-10T15:05:35.567Z,39.31
2018-09-10T15:08:04.017Z,40.16
2018-09-10T15:10:32.395Z,40.19
2018-09-10T15:13:00.953Z,41.04
2018-09-10T15:15:29.331Z,41.28
2018-09-10T15:17:57.709Z,41.23
2018-09-10T15:20:26.748Z,41.91
2018-09-10T15:22:55.109Z,41.27
2018-09-10T15:25:23.498Z,42.84
2018-09-10T15:27:51.884Z,44.00
2018-09-10T15:30:20.281Z,45.38
2018-09-10T15:32:48.932Z,46.21
2018-09-10T15:35:17.386Z,48.44
2018-09-10T15:37:45.762Z,50.78
2018-09-10T15:40:14.172Z,50.79
2018-09-10T15:42:42.521Z,51.25
2018-09-10T15:45:10.964Z,53.05
2018-09-10T15:47:39.246Z,50.54
2018-09-10T15:50:07.790Z,52.90
2018-09-10T15:52:36.284Z,54.04
2018-09-10T15:55:04.651Z,52.51
2018-09-10T15:57:33.056Z,51.36
2018-09-10T16:00:01.392Z,51.83
2018-09-10T16:02:29.758Z,51.92
2018-09-10T16:04:59.956Z,52.78
2018-09-10T16:07:28.368Z,54.19
2018-09-10T16:09:56.767Z,52.63
2018-09-10T16:12:25.228Z,53.64
2018-09-10T16:14:53.733Z,54.06
2018-09-10T16:17:22.090Z,53.77
2018-09-10T16:19:50.406Z,53.71
2018-09-10T16:22:18.768Z,53.84
2018-09-10T16:26:11.524Z,52.37
2018-09-10T16:28:39.855Z,52.37
2018-09-10T16:31:08.192Z,52.63
2018-09-10T16:33:36.540Z,50.75
2018-09-10T16:36:04.914Z,50.17
2018-09-10T16:38:33.293Z,48.95
2018-09-10T16:41:01.707Z,48.81
2018-09-10T16:43:30.017Z,48.32
2018-09-10T16:45:58.417Z,48.82
2018-09-10T16:48:26.836Z,48.16
2018-09-10T16:50:55.111Z,48.09
2018-09-10T16:53:23.415Z,48.33
2018-09-10T16:55:51.796Z,49.11
2018-09-10T16:58:20.157Z,48.37
2018-09-10T17:00:49.441Z,47.87
2018-09-10T17:03:17.701Z,48.68
2018-09-10T17:05:46.045Z,48.76
2018-09-10T17:08:14.380Z,48.17
2018-09-10T17:10:42.800Z,48.22
2018-09-10T17:13:11.220Z,48.50
2018-09-10T17:15:39.728Z,47.58
2018-09-10T17:18:08.312Z,48.61
2018-09-10T17:20:36.691Z,47.15
2018-09-10T17:23:05.041Z,47.96
2018-09-10T17:25:33.456Z,47.46
2018-09-10T17:28:01.782Z,47.79
2018-09-10T17:30:30.203Z,48.52
2018-09-10T17:32:58.589Z,47.64
2018-09-10T17:35:26.949Z,47.45
2018-09-10T17:37:55.343Z,48.68
2018-09-10T17:40:23.703Z,48.14
2018-09-10T17:42:52.040Z,47.40
2018-09-10T17:45:20.388Z,47.38
2018-09-10T17:47:48.713Z,49.28
2018-09-10T17:50:17.118Z,48.49
2018-09-10T17:52:45.505Z,48.07
2018-09-10T17:55:13.851Z,48.37
2018-09-10T17:57:42.256Z,48.35
2018-09-10T18:00:10.664Z,48.40
2018-09-10T18:02:39.175Z,48.82
2018-09-10T18:05:07.691Z,48.89
2018-09-10T18:07:36.057Z,48.41
2018-09-10T18:10:04.476Z,48.83
2018-09-10T18:12:32.827Z,49.12
2018-09-10T18:15:01.154Z,48.77
2018-09-10T18:17:29.561Z,49.91
2018-09-10T18:19:57.904Z,49.10
2018-09-10T18:22:26.299Z,49.30
2018-09-10T18:24:54.692Z,49.71
2018-09-10T18:27:23.035Z,49.52
2018-09-10T18:29:51.498Z,50.63
2018-09-10T18:32:19.849Z,50.85
2018-09-10T18:34:48.205Z,49.93
2018-09-10T18:37:16.545Z,49.66
2018-09-10T18:39:44.904Z,50.30
2018-09-10T18:42:13.253Z,51.75
2018-09-10T18:44:41.604Z,50.41
2018-09-10T18:47:10.485Z,51.41
2018-09-10T18:49:38.810Z,50.43
2018-09-10T18:52:07.492Z,51.04
2018-09-10T18:54:35.845Z,50.56
2018-09-10T18:57:04.227Z,51.07
2018-09-10T18:59:32.628Z,51.24
2018-09-10T19:02:00.992Z,50.78
2018-09-10T19:04:29.360Z,51.11
2018-09-10T19:06:57.764Z,51.93
2018-09-10T19:09:26.116Z,51.14
2018-09-10T19:11:54.522Z,51.33
2018-09-10T19:14:22.861Z,51.68
2018-09-10T19:16:51.244Z,51.31
2018-09-10T19:19:19.692Z,52.44
2018-09-10T19:21:48.037Z,52.56
2018-09-10T19:24:16.419Z,52.31
2018-09-10T19:26:44.794Z,52.27
2018-09-10T19:29:13.173Z,52.57
2018-09-10T19:31:41.552Z,52.75
2018-09-10T19:34:09.944Z,53.57
2018-09-10T19:36:38.341Z,55.09
2018-09-10T19:39:09.012Z,53.27
2018-09-10T19:41:37.389Z,53.12
2018-09-10T19:44:05.856Z,53.66
2018-09-10T19:46:34.253Z,53.50
2018-09-10T19:49:02.664Z,53.43
2018-09-10T19:51:31.557Z,54.80
2018-09-10T19:53:59.895Z,53.68
2018-09-10T19:56:28.310Z,53.90
2018-09-10T19:58:56.651Z,53.09
2018-09-10T20:01:25.030Z,53.32
2018-09-10T20:03:53.521Z,53.68
2018-09-10T20:06:21.895Z,53.25
2018-09-10T20:08:50.279Z,54.40
2018-09-10T20:11:18.689Z,54.53
2018-09-10T20:13:47.067Z,55.44
2018-09-10T20:16:15.407Z,54.15
2018-09-10T20:18:44.609Z,55.69
2018-09-10T20:21:13.023Z,54.98
2018-09-10T20:23:41.379Z,55.32
2018-09-10T20:26:09.808Z,55.68
2018-09-10T20:28:38.165Z,54.42
2018-09-10T20:31:06.777Z,54.70
2018-09-10T20:33:40.516Z,54.97
2018-09-10T20:36:08.964Z,54.42
2018-09-10T20:38:37.314Z,53.75
2018-09-10T20:41:05.720Z,54.64
2018-09-10T20:43:34.132Z,55.20
2018-09-10T20:46:02.523Z,55.22
2018-09-10T20:48:30.860Z,54.65
2018-09-10T20:50:59.204Z,55.69
2018-09-10T20:53:27.556Z,55.88
2018-09-10T20:55:55.917Z,55.67
2018-09-10T20:58:24.296Z,55.53
2018-09-10T21:00:52.669Z,58.04
2018-09-10T21:03:21.038Z,56.26
2018-09-10T21:05:49.385Z,55.04
2018-09-10T21:08:17.844Z,55.31
2018-09-10T21:10:46.281Z,55.59
2018-09-10T21:13:14.779Z,55.54
2018-09-10T21:15:43.143Z,56.44
2018-09-10T21:18:11.648Z,56.68
2018-09-10T21:20:40.044Z,56.95
2018-09-10T21:23:08.426Z,57.29
2018-09-10T21:25:36.829Z,57.17
2018-09-10T21:28:05.238Z,57.40
2018-09-10T21:30:33.616Z,56.96
2018-09-10T21:33:02.013Z,57.57
2018-09-10T21:35:30.392Z,56.73
2018-09-10T21:37:59.438Z,56.78
2018-09-10T21:40:27.837Z,57.52
2018-09-10T21:42:56.301Z,57.85
2018-09-10T21:45:24.649Z,56.89
2018-09-10T21:47:53.104Z,57.96
2018-09-10T21:50:22.506Z,57.81
2018-09-10T21:52:50.929Z,57.03
2018-09-10T21:55:19.483Z,57.38
2018-09-10T21:57:47.860Z,57.45
2018-09-10T22:00:16.680Z,57.87
2018-09-10T22:02:45.148Z,58.37
2018-09-10T22:05:13.572Z,58.56
2018-09-10T22:07:42.399Z,58.00
2018-09-10T22:10:10.856Z,57.33
2018-09-10T22:12:39.648Z,58.12
2018-09-10T22:15:08.047Z,58.02
2018-09-10T22:17:36.711Z,58.09
2018-09-10T22:20:05.191Z,58.96
2018-09-10T22:22:33.800Z,58.66
2018-09-10T22:25:02.176Z,59.12
2018-09-10T22:27:30.540Z,57.45
2018-09-10T22:29:58.956Z,59.55
2018-09-10T22:32:27.359Z,58.02
2018-09-10T22:34:55.758Z,59.24
2018-09-10T22:37:24.115Z,59.35
2018-09-10T22:39:52.467Z,58.96
2018-09-10T22:42:21.428Z,59.99
2018-09-10T22:44:49.909Z,59.48
2018-09-10T22:47:18.760Z,59.59
2018-09-10T22:49:47.148Z,59.17
2018-09-10T22:52:15.514Z,59.41
2018-09-10T22:54:43.862Z,59.15
2018-09-10T22:57:12.203Z,60.80
2018-09-10T22:59:40.552Z,60.50
2018-09-10T23:02:08.924Z,59.56
2018-09-10T23:04:37.292Z,59.34
2018-09-10T23:07:05.691Z,59.70
2018-09-10T23:09:34.089Z,60.44
2018-09-10T23:12:02.457Z,60.99
2018-09-10T23:14:30.788Z,60.56
2018-09-10T23:16:59.271Z,60.05
2018-09-10T23:19:27.609Z,60.32
2018-09-10T23:21:55.968Z,60.14
2018-09-10T23:24:24.344Z,60.52
2018-09-10T23:26:52.723Z,60.57
2018-09-10T23:29:21.063Z,60.42
2018-09-10T23:31:49.413Z,61.00
2018-09-10T23:34:17.765Z,61.17
2018-09-10T23:36:46.107Z,59.60
2018-09-10T23:39:14.757Z,59.61
2018-09-10T23:41:43.827Z,60.71
2018-09-10T23:44:12.341Z,60.02
2018-09-10T23:46:40.768Z,62.28
2018-09-10T23:49:09.164Z,60.40
2018-09-10T23:51:37.517Z,61.28
2018-09-10T23:54:05.866Z,61.10
2018-09-10T23:56:34.238Z,61.38
2018-09-10T23:59:02.610Z,60.64
